PWSweather.com
Personal Weather Stations
Station Observations
PHMDWX
Perry Hall, MD 21236

Perry Hall, MD 21236

Lat: 39.418318, Lon: -76.490039

Elevation: 305

Station Type: Davis Vantage Pro

Latest ConditionsUpdated 10:00:04 AM EDT Thursday, Sep 21, 2017
Currently Today's Max Today's Min Today's Average
Temperature 73.5°F23.1°C 73.5°F23.1°C 62.4°F16.9°C 65.2°F18.4°C
Dew Point 66.2°F19.0°C 66.3°F19.1°C 61.5°F16.4°C 63.3°F17.4°C
Winds Calm Calm 1.2 mph WNW1.9 kmh WNW - 0.2 mph 0.3 kmh
Wind Gusts 2.0 mph3.2 kmh 2.0 mph3.2 kmh - -
Humidity 78% 98% 78% 94%
Pressure 30.02 in1016.6 mb 30.02 in1016.6 mb 29.93 in1013.5 mb -
Hour Temp Dew Point Humidity Winds Wind Gusts Pressure Precip Precip Rate Daily Precip Total
10:00 AM 73.5°F23.1°C 66.2°F19.0°C 78% Calm Calm 2.0 mph3.2 kmh 30.02 in1016.6 mb - 0.00 in0.0 mm 0.00 in0.0 mm
09:30 AM 72.2°F22.3°C 66.0°F18.9°C 81% 0.3 mph W0.5 kmh W 1.0 mph1.6 kmh 30.02 in1016.6 mb - 0.00 in0.0 mm 0.00 in0.0 mm
09:00 AM 69.4°F20.8°C 66.3°F19.1°C 90% 0.5 mph WNW0.8 kmh WNW 2.0 mph3.2 kmh 30.01 in1016.3 mb - 0.00 in0.0 mm 0.00 in0.0 mm
08:30 AM 66.4°F19.1°C 65.5°F18.6°C 97% 0.1 mph WNW0.2 kmh WNW 1.0 mph1.6 kmh 30.01 in1016.3 mb - 0.00 in0.0 mm 0.00 in0.0 mm
08:00 AM 64.3°F17.9°C 63.7°F17.6°C 98% Calm Calm -- 30.02 in1016.6 mb - 0.00 in0.0 mm 0.00 in0.0 mm
07:30 AM 62.9°F17.2°C 62.3°F16.8°C 98% Calm Calm -- 30.01 in1016.3 mb - 0.00 in0.0 mm 0.00 in0.0 mm
07:00 AM 62.6°F17.0°C 61.7°F16.5°C 97% 0.2 mph WNW0.3 kmh WNW 1.0 mph1.6 kmh 30.00 in1015.9 mb - 0.00 in0.0 mm 0.00 in0.0 mm
06:30 AM 62.4°F16.9°C 61.5°F16.4°C 97% 0.4 mph WNW0.6 kmh WNW 1.0 mph1.6 kmh 29.99 in1015.6 mb - 0.00 in0.0 mm 0.00 in0.0 mm
06:00 AM 62.7°F17.1°C 61.8°F16.6°C 97% 0.1 mph WNW0.2 kmh WNW 1.0 mph1.6 kmh 29.98 in1015.2 mb - 0.00 in0.0 mm 0.00 in0.0 mm
05:30 AM 62.9°F17.2°C 62.0°F16.7°C 97% 0.2 mph WNW0.3 kmh WNW 1.0 mph1.6 kmh 29.96 in1014.6 mb - 0.00 in0.0 mm 0.00 in0.0 mm
05:00 AM 62.9°F17.2°C 62.0°F16.7°C 97% 1.2 mph WNW1.9 kmh WNW 2.0 mph3.2 kmh 29.95 in1014.2 mb - 0.00 in0.0 mm 0.00 in0.0 mm
04:30 AM 63.1°F17.3°C 61.9°F16.6°C 96% Calm Calm 1.0 mph1.6 kmh 29.95 in1014.2 mb - 0.00 in0.0 mm 0.00 in0.0 mm
04:00 AM 63.5°F17.5°C 62.3°F16.8°C 96% Calm Calm -- 29.94 in1013.9 mb - 0.00 in0.0 mm 0.00 in0.0 mm
03:30 AM 63.7°F17.6°C 62.2°F16.8°C 95% Calm Calm -- 29.94 in1013.9 mb - 0.00 in0.0 mm 0.00 in0.0 mm
03:00 AM 64.3°F17.9°C 62.8°F17.1°C 95% Calm Calm -- 29.94 in1013.9 mb - 0.00 in0.0 mm 0.00 in0.0 mm
02:30 AM 65.0°F18.3°C 63.2°F17.3°C 94% 0.1 mph WNW0.2 kmh WNW 1.0 mph1.6 kmh 29.95 in1014.2 mb - 0.00 in0.0 mm 0.00 in0.0 mm
02:00 AM 65.2°F18.4°C 63.4°F17.4°C 94% 0.8 mph WNW1.3 kmh WNW 2.0 mph3.2 kmh 29.95 in1014.2 mb - 0.00 in0.0 mm 0.00 in0.0 mm
01:30 AM 65.3°F18.5°C 63.8°F17.7°C 95% Calm Calm 1.0 mph1.6 kmh 29.95 in1014.2 mb - 0.00 in0.0 mm 0.00 in0.0 mm
01:00 AM 65.2°F18.4°C 63.7°F17.6°C 95% 0.6 mph WNW1.0 kmh WNW 1.0 mph1.6 kmh 29.94 in1013.9 mb - 0.00 in0.0 mm 0.00 in0.0 mm
12:30 AM 65.5°F18.6°C 63.7°F17.6°C 94% Calm Calm -- 29.94 in1013.9 mb - 0.00 in0.0 mm 0.00 in0.0 mm
12:00 AM 65.8°F18.8°C 64.0°F17.8°C 94% 0.5 mph WNW0.8 kmh WNW 2.0 mph3.2 kmh 29.93 in1013.5 mb - 0.00 in0.0 mm 0.00 in0.0 mm